createdAt,value
2022-08-17T00:01:45.534Z,100577.59
2022-08-17T00:04:19.766Z,100596.72
2022-08-17T00:06:49.059Z,100598.03
2022-08-17T00:09:18.736Z,100592.28
2022-08-17T00:12:03.928Z,100600.91
2022-08-17T00:14:34.030Z,100607.84
2022-08-17T00:17:00.639Z,100610.22
2022-08-17T00:19:27.599Z,100613.56
2022-08-17T00:22:31.501Z,100610.81
2022-08-17T00:24:44.120Z,100603.03
2022-08-17T00:27:10.654Z,100590.97
2022-08-17T00:29:37.340Z,100599.69
2022-08-17T00:33:15.648Z,100594.44
2022-08-17T00:34:50.830Z,100591.66
2022-08-17T00:37:17.383Z,100577.88
2022-08-17T00:39:44.578Z,100589.56
2022-08-17T00:42:19.033Z,100586.22
2022-08-17T00:44:46.073Z,100583.47
2022-08-17T00:47:12.655Z,100587.78
2022-08-17T00:49:39.520Z,100584.03
2022-08-17T00:52:15.309Z,100581.97
2022-08-17T00:54:45.268Z,100576.03
2022-08-17T00:57:18.329Z,100568.03
2022-08-17T01:00:02.691Z,100573.44
2022-08-17T01:02:34.417Z,100565.22
2022-08-17T01:05:12.736Z,100564.47
2022-08-17T01:07:40.061Z,100557.69
2022-08-17T01:10:57.628Z,100560.19
2022-08-17T01:13:02.459Z,100562.47
2022-08-17T01:15:36.388Z,100563.13
2022-08-17T01:18:07.772Z,100561.38
2022-08-17T01:20:41.899Z,100569.44
2022-08-17T01:23:20.478Z,100571.94
2022-08-17T01:25:51.082Z,100566.34
2022-08-17T01:28:36.498Z,100562.88
2022-08-17T01:31:08.083Z,100566.00
2022-08-17T01:33:35.278Z,100566.00
2022-08-17T01:36:03.583Z,100565.41
2022-08-17T01:38:31.803Z,100565.16
2022-08-17T01:41:06.862Z,100578.66
2022-08-17T01:43:48.112Z,100575.91
2022-08-17T01:46:23.197Z,100575.31
2022-08-17T01:48:51.476Z,100575.44
2022-08-17T01:51:18.401Z,100572.47
2022-08-17T01:53:49.579Z,100577.84
2022-08-17T01:56:21.392Z,100573.56
2022-08-17T01:58:48.773Z,100573.06
2022-08-17T02:01:20.668Z,100575.34
2022-08-17T02:03:59.574Z,100577.13
2022-08-17T02:06:31.321Z,100583.22
2022-08-17T02:09:02.271Z,100590.97
2022-08-17T02:11:32.348Z,100597.66
2022-08-17T02:14:03.495Z,100608.19
2022-08-17T02:16:37.621Z,100606.03
2022-08-17T02:19:12.658Z,100600.91
2022-08-17T02:21:41.664Z,100598.75
2022-08-17T02:24:11.740Z,100599.84
2022-08-17T02:26:38.374Z,100605.47
2022-08-17T02:29:04.984Z,100601.16
2022-08-17T02:31:31.767Z,100601.66
2022-08-17T02:34:03.874Z,100606.06
2022-08-17T02:36:35.535Z,100601.31
2022-08-17T02:39:08.696Z,100606.19
2022-08-17T03:20:31.778Z,100613.91
2022-08-17T03:23:01.787Z,100612.47
2022-08-17T03:25:41.248Z,100623.44
2022-08-17T03:28:11.949Z,100623.09
2022-08-17T03:30:39.050Z,100616.66
2022-08-17T03:33:09.954Z,100611.00
2022-08-17T03:35:40.372Z,100616.13
2022-08-17T03:38:08.763Z,100608.59
2022-08-17T03:40:57.192Z,100620.88
2022-08-17T03:43:22.900Z,100620.53
2022-08-17T03:46:27.138Z,100614.19
2022-08-17T03:49:14.107Z,100597.81
2022-08-17T03:51:59.465Z,100603.16
2022-08-17T03:54:44.767Z,100594.03
2022-08-17T03:57:12.486Z,100604.66
2022-08-17T03:59:39.711Z,100599.88
2022-08-17T04:02:16.355Z,100600.19
2022-08-17T04:04:42.949Z,100590.16
2022-08-17T04:07:09.645Z,100592.72
2022-08-17T04:09:36.608Z,100599.31
2022-08-17T04:12:04.743Z,100579.22
2022-08-17T04:14:37.867Z,100571.22
2022-08-17T04:17:20.518Z,100562.75
2022-08-17T04:19:47.169Z,100572.66
2022-08-17T04:22:32.918Z,100581.97
2022-08-17T04:25:04.602Z,100583.16
2022-08-17T04:27:31.161Z,100595.09
2022-08-17T04:29:58.515Z,100604.31
2022-08-17T04:32:25.215Z,100600.44
2022-08-17T04:35:11.701Z,100598.66
2022-08-17T04:37:38.241Z,100605.34
2022-08-17T04:40:34.199Z,100603.56
2022-08-17T04:43:07.232Z,100605.63
2022-08-17T04:45:34.246Z,100607.25
2022-08-17T04:48:01.379Z,100607.50
2022-08-17T04:50:27.983Z,100612.63
2022-08-17T04:52:54.694Z,100611.41
2022-08-17T04:55:21.662Z,100616.66
2022-08-17T04:57:48.295Z,100614.50
2022-08-17T05:00:15.127Z,100612.63
2022-08-17T05:03:00.467Z,100614.63
2022-08-17T05:05:30.448Z,100616.31
2022-08-17T05:08:01.629Z,100616.00
2022-08-17T05:10:30.999Z,100618.75
2022-08-17T05:13:15.479Z,100628.69
2022-08-17T05:15:44.832Z,100629.53
2022-08-17T05:18:12.163Z,100639.28
2022-08-17T05:20:40.521Z,100638.53
2022-08-17T05:23:08.551Z,100653.28
2022-08-17T05:25:40.365Z,100663.88
2022-08-17T05:28:07.574Z,100680.97
2022-08-17T05:30:35.770Z,100679.00
2022-08-17T05:33:06.195Z,100689.28
2022-08-17T05:35:36.194Z,100688.13
2022-08-17T05:38:02.844Z,100692.16
2022-08-17T05:40:32.674Z,100685.00
2022-08-17T05:43:12.214Z,100683.81
2022-08-17T05:46:07.949Z,100702.03
2022-08-17T05:48:42.515Z,100690.53
2022-08-17T05:51:15.088Z,100697.66
2022-08-17T05:54:15.918Z,100704.66
2022-08-17T05:56:51.388Z,100690.81
2022-08-17T05:59:28.929Z,100698.06
2022-08-17T06:02:17.156Z,100699.84
2022-08-17T06:05:40.942Z,100703.09
2022-08-17T06:08:22.280Z,100712.94
2022-08-17T06:11:20.476Z,100714.63
2022-08-17T06:14:17.879Z,100721.88
2022-08-17T06:16:50.389Z,100732.31
2022-08-17T06:19:27.809Z,100737.44
2022-08-17T06:21:55.084Z,100744.28
2022-08-17T06:24:39.142Z,100735.06
2022-08-17T06:27:43.678Z,100734.75
2022-08-17T06:30:20.240Z,100744.25
2022-08-17T06:32:49.346Z,100752.81
2022-08-17T06:35:34.051Z,100751.94
2022-08-17T06:38:37.584Z,100745.28
2022-08-17T06:41:22.387Z,100748.66
2022-08-17T06:44:43.597Z,100751.16
2022-08-17T06:47:13.507Z,100741.19
2022-08-17T06:49:55.293Z,100745.53
2022-08-17T06:52:45.571Z,100764.50
2022-08-17T06:55:26.263Z,100770.34
2022-08-17T06:57:58.583Z,100765.34
2022-08-17T07:00:33.521Z,100757.59
2022-08-17T07:03:09.911Z,100758.38
2022-08-17T07:05:44.474Z,100754.59
2022-08-17T07:08:19.779Z,100760.91
2022-08-17T07:10:54.741Z,100750.94
2022-08-17T07:14:03.628Z,100751.16
2022-08-17T07:16:41.158Z,100750.38
2022-08-17T07:19:10.747Z,100759.44
2022-08-17T07:21:47.037Z,100748.69
2022-08-17T07:24:30.201Z,100736.75
2022-08-17T07:27:21.219Z,100729.16
2022-08-17T07:29:56.641Z,100735.69
2022-08-17T07:32:31.542Z,100734.75
2022-08-17T07:35:16.656Z,100737.75
2022-08-17T07:37:53.057Z,100749.22
2022-08-17T07:40:35.697Z,100739.19
2022-08-17T07:43:08.058Z,100731.91
2022-08-17T07:46:32.758Z,100731.88
2022-08-17T07:49:08.038Z,100748.91
2022-08-17T07:51:57.631Z,100730.19
2022-08-17T07:54:40.863Z,100723.13
2022-08-17T07:57:13.347Z,100710.91
2022-08-17T07:59:43.394Z,100695.88
2022-08-17T08:02:33.887Z,100713.44
2022-08-17T08:05:14.541Z,100713.91
2022-08-17T08:08:05.855Z,100726.16
2022-08-17T08:10:38.896Z,100719.03
2022-08-17T08:13:14.084Z,100719.97
2022-08-17T08:15:54.202Z,100723.38
2022-08-17T08:18:39.682Z,100725.91
2022-08-17T08:21:53.570Z,100719.91
2022-08-17T08:24:32.732Z,100735.41
2022-08-17T08:27:19.714Z,100729.38
2022-08-17T08:30:22.686Z,100724.91
2022-08-17T08:33:17.580Z,100728.38
2022-08-17T08:35:54.994Z,100716.13
2022-08-17T08:38:37.128Z,100722.13
2022-08-17T08:41:58.836Z,100723.53
2022-08-17T08:45:01.151Z,100720.25
2022-08-17T08:47:43.796Z,100720.44
2022-08-17T08:50:37.485Z,100727.88
2022-08-17T08:53:16.401Z,100721.13
2022-08-17T08:56:11.998Z,100721.06
2022-08-17T08:58:50.683Z,100735.28
2022-08-17T09:01:43.491Z,100719.72
2022-08-17T09:05:12.956Z,100709.06
2022-08-17T09:07:48.341Z,100710.66
2022-08-17T09:10:27.122Z,100714.03
2022-08-17T09:13:46.319Z,100714.41
2022-08-17T09:16:45.604Z,100710.94
2022-08-17T09:19:30.379Z,100709.94
2022-08-17T09:22:24.081Z,100716.88
2022-08-17T09:25:12.533Z,100736.16
2022-08-17T09:28:16.771Z,100723.59
2022-08-17T09:30:50.704Z,100726.66
2022-08-17T09:33:22.992Z,100714.44
2022-08-17T09:35:57.110Z,100725.22
2022-08-17T09:38:32.631Z,100720.34
2022-08-17T09:41:18.605Z,100712.72
2022-08-17T09:43:51.054Z,100724.50
2022-08-17T09:46:29.252Z,100723.13
2022-08-17T09:49:25.141Z,100723.63
2022-08-17T09:52:26.357Z,100721.75
2022-08-17T09:54:55.693Z,100713.03
2022-08-17T09:57:55.982Z,100724.53
2022-08-17T10:00:29.266Z,100727.22
2022-08-17T10:03:11.803Z,100716.88
2022-08-17T10:05:47.242Z,100714.66
2022-08-17T10:08:22.818Z,100716.97
2022-08-17T10:11:18.971Z,100704.47
2022-08-17T10:13:56.048Z,100701.00
2022-08-17T10:16:28.953Z,100714.28
2022-08-17T10:19:35.855Z,100706.53
2022-08-17T10:22:34.693Z,100710.44
2022-08-17T10:25:26.102Z,100695.38
2022-08-17T10:28:06.476Z,100680.13
2022-08-17T10:30:44.366Z,100692.72
2022-08-17T10:33:24.539Z,100699.44
2022-08-17T10:36:10.857Z,100688.50
2022-08-17T10:38:46.953Z,100713.28
2022-08-17T10:41:33.174Z,100725.16
2022-08-17T10:44:39.095Z,100708.41
2022-08-17T10:47:08.106Z,100724.53
2022-08-17T10:49:47.397Z,100724.25
2022-08-17T10:52:19.708Z,100721.69
2022-08-17T10:55:14.985Z,100718.47
2022-08-17T10:57:44.851Z,100726.38
2022-08-17T11:00:35.083Z,100721.81
2022-08-17T11:03:02.443Z,100706.50
2022-08-17T11:05:41.501Z,100716.19
2022-08-17T11:08:25.285Z,100728.69
2022-08-17T11:11:08.734Z,100711.66
2022-08-17T11:14:04.589Z,100707.66
2022-08-17T11:16:49.744Z,100713.38
2022-08-17T11:19:38.221Z,100710.56
2022-08-17T11:22:10.535Z,100711.69
2022-08-17T11:24:48.065Z,100701.16
2022-08-17T11:27:31.573Z,100701.41
2022-08-17T11:30:08.740Z,100695.91
2022-08-17T11:32:48.818Z,100693.94
2022-08-17T11:35:21.064Z,100689.38
2022-08-17T11:38:16.132Z,100666.88
2022-08-17T11:41:13.414Z,100673.19
2022-08-17T11:44:02.062Z,100675.56
2022-08-17T11:46:56.821Z,100671.63
2022-08-17T11:50:16.883Z,100658.00
2022-08-17T11:52:49.333Z,100665.56
2022-08-17T11:55:40.730Z,100653.03
2022-08-17T11:58:29.429Z,100651.81
2022-08-17T12:01:06.890Z,100654.03
2022-08-17T12:03:33.555Z,100658.94
2022-08-17T12:06:19.849Z,100656.31
2022-08-17T12:08:58.310Z,100649.88
2022-08-17T12:12:12.182Z,100656.19
2022-08-17T12:15:09.030Z,100643.28
2022-08-17T12:17:41.163Z,100648.22
2022-08-17T12:20:29.613Z,100649.31
2022-08-17T12:23:20.205Z,100659.41
2022-08-17T12:26:04.647Z,100668.81
2022-08-17T12:28:35.579Z,100659.28
2022-08-17T12:31:17.881Z,100663.06
2022-08-17T12:33:46.670Z,100658.19
2022-08-17T12:36:15.922Z,100664.59
2022-08-17T12:38:51.231Z,100667.78
2022-08-17T12:41:52.055Z,100664.97
2022-08-17T12:44:24.511Z,100679.38
2022-08-17T12:46:53.245Z,100681.44
2022-08-17T12:49:25.162Z,100677.28
2022-08-17T12:51:59.927Z,100666.03
2022-08-17T12:54:37.730Z,100678.25
2022-08-17T12:57:12.596Z,100669.78
2022-08-17T12:59:46.177Z,100667.25
2022-08-17T13:02:41.423Z,100655.88
2022-08-17T13:05:17.866Z,100664.47
2022-08-17T13:07:46.602Z,100658.88
2022-08-17T13:10:21.862Z,100646.69
2022-08-17T13:12:50.998Z,100651.94
2022-08-17T13:15:29.489Z,100655.88
2022-08-17T13:18:04.927Z,100657.38
2022-08-17T13:20:33.090Z,100659.34
2022-08-17T13:23:11.448Z,100659.66
2022-08-17T13:25:38.962Z,100660.41
2022-08-17T13:28:05.522Z,100655.59
2022-08-17T13:30:33.328Z,100666.31
2022-08-17T13:33:04.747Z,100661.50
2022-08-17T13:35:49.947Z,100664.50
2022-08-17T13:38:39.378Z,100658.59
2022-08-17T13:41:07.463Z,100660.56
2022-08-17T13:43:45.452Z,100677.72
2022-08-17T13:46:21.571Z,100660.84
2022-08-17T13:49:02.292Z,100666.59
2022-08-17T13:51:33.010Z,100677.63
2022-08-17T13:54:02.548Z,100673.28
2022-08-17T13:57:04.691Z,100675.00
2022-08-17T13:59:54.945Z,100667.56
2022-08-17T14:02:28.271Z,100655.34
2022-08-17T14:04:56.243Z,100661.25
2022-08-17T14:07:33.896Z,100654.81
2022-08-17T14:10:09.661Z,100651.56
2022-08-17T14:12:39.876Z,100627.69
2022-08-17T14:15:07.831Z,100636.47
2022-08-17T14:17:38.705Z,100621.38
2022-08-17T14:20:09.532Z,100613.28
2022-08-17T14:22:39.302Z,100605.00
2022-08-17T14:25:10.259Z,100603.41
2022-08-17T14:27:43.594Z,100584.78
2022-08-17T14:30:25.181Z,100580.44
2022-08-17T14:32:52.384Z,100572.38
2022-08-17T14:35:22.560Z,100574.41
2022-08-17T14:37:50.348Z,100582.75
2022-08-17T14:40:20.677Z,100579.47
2022-08-17T14:42:48.060Z,100572.06
2022-08-17T14:45:31.596Z,100567.06
2022-08-17T14:48:00.754Z,100570.91
2022-08-17T14:50:27.292Z,100567.00
2022-08-17T14:52:56.016Z,100566.69
2022-08-17T14:55:24.977Z,100576.06
2022-08-17T14:57:51.766Z,100550.06
2022-08-17T15:00:18.567Z,100543.66
2022-08-17T15:02:55.115Z,100541.41
2022-08-17T15:05:24.758Z,100527.38
2022-08-17T15:07:52.699Z,100533.53
2022-08-17T15:10:20.178Z,100530.34
2022-08-17T15:12:46.817Z,100528.44
2022-08-17T15:15:16.037Z,100525.50
2022-08-17T15:17:45.984Z,100539.69
2022-08-17T15:20:19.072Z,100536.50
2022-08-17T15:22:49.619Z,100538.75
2022-08-17T15:25:19.058Z,100527.16
2022-08-17T15:27:46.156Z,100522.50
2022-08-17T15:30:13.072Z,100516.63
2022-08-17T15:32:51.448Z,100523.44
2022-08-17T15:35:27.727Z,100508.50
2022-08-17T15:38:04.555Z,100503.31
2022-08-17T15:40:37.181Z,100505.09
2022-08-17T15:43:05.876Z,100506.16
2022-08-17T15:45:33.485Z,100497.88
2022-08-17T15:48:00.515Z,100507.56
2022-08-17T15:50:27.077Z,100511.28
2022-08-17T15:52:59.248Z,100496.28
2022-08-17T15:55:32.469Z,100512.63
2022-08-17T15:57:59.169Z,100512.31
2022-08-17T16:00:26.777Z,100507.38
2022-08-17T16:03:45.452Z,100505.69
2022-08-17T16:05:41.375Z,100500.44
2022-08-17T16:08:08.218Z,100503.31
2022-08-17T16:10:36.076Z,100510.66
2022-08-17T16:13:04.340Z,100509.22
2022-08-17T16:15:31.915Z,100528.44
2022-08-17T16:17:59.170Z,100530.13
2022-08-17T16:20:25.980Z,100532.09
2022-08-17T16:22:54.213Z,100530.69
2022-08-17T16:25:49.226Z,100523.59
2022-08-17T16:28:13.026Z,100525.03
2022-08-17T16:30:39.832Z,100522.84
2022-08-17T16:33:06.450Z,100504.53
2022-08-17T16:35:33.280Z,100506.88
2022-08-17T16:37:59.885Z,100493.63
2022-08-17T16:40:29.778Z,100485.84
2022-08-17T16:42:59.608Z,100474.91
2022-08-17T16:45:28.750Z,100465.50
2022-08-17T16:47:59.054Z,100447.47
2022-08-17T16:50:26.084Z,100443.47
2022-08-17T16:52:52.854Z,100448.81
2022-08-17T16:55:22.158Z,100449.47
2022-08-17T16:57:50.186Z,100462.31
2022-08-17T17:00:19.163Z,100451.19
2022-08-17T17:02:47.790Z,100447.91
2022-08-17T17:05:36.506Z,100454.03
2022-08-17T17:08:14.073Z,100463.25
2022-08-17T17:10:45.946Z,100464.25
2022-08-17T17:13:29.655Z,100477.69
2022-08-17T17:16:41.393Z,100488.53
2022-08-17T17:19:34.535Z,100493.09
2022-08-17T17:22:23.017Z,100488.75
2022-08-17T17:24:58.614Z,100471.28
2022-08-17T17:27:43.623Z,100478.59
2022-08-17T17:30:36.049Z,100504.00
2022-08-17T17:33:19.129Z,100519.09
2022-08-17T17:36:08.082Z,100521.66
2022-08-17T17:38:52.800Z,100537.50
2022-08-17T17:41:28.953Z,100534.53
2022-08-17T17:44:05.042Z,100555.09
2022-08-17T17:46:38.162Z,100602.63
2022-08-17T17:49:06.188Z,100621.59
2022-08-17T17:52:06.744Z,100629.06
2022-08-17T17:54:47.199Z,100609.50
2022-08-17T17:57:58.041Z,100643.03
2022-08-17T18:00:37.979Z,100687.66
2022-08-17T18:03:25.574Z,100710.53
2022-08-17T18:06:02.319Z,100719.13
2022-08-17T18:08:34.391Z,100731.34
2022-08-17T18:11:25.389Z,100728.19
2022-08-17T18:14:19.718Z,100743.78
2022-08-17T18:16:47.500Z,100730.09
2022-08-17T18:19:20.026Z,100699.59
2022-08-17T18:21:54.713Z,100650.28
2022-08-17T18:24:33.449Z,100621.16
2022-08-17T18:27:08.697Z,100613.63
2022-08-17T18:29:43.190Z,100606.75
2022-08-17T18:32:12.676Z,100585.81
2022-08-17T18:34:48.510Z,100601.25
2022-08-17T18:37:40.384Z,100616.13
2022-08-17T18:40:23.286Z,100626.09
2022-08-17T18:43:27.310Z,100623.59
2022-08-17T18:45:57.094Z,100659.56
2022-08-17T18:48:48.795Z,100682.50
2022-08-17T18:54:24.169Z,100638.31
2022-08-17T18:56:56.830Z,100633.44
2022-08-17T18:59:43.765Z,100664.97
2022-08-17T19:02:23.198Z,100677.16
2022-08-17T19:05:24.521Z,100685.41
2022-08-17T19:07:55.134Z,100690.91
2022-08-17T19:10:21.731Z,100700.34
2022-08-17T19:13:12.725Z,100691.91
2022-08-17T19:16:11.695Z,100711.84
2022-08-17T19:18:43.800Z,100717.94
2022-08-17T19:21:16.804Z,100693.56
2022-08-17T19:23:55.785Z,100694.25
2022-08-17T19:26:54.052Z,100690.56
2022-08-17T19:29:25.668Z,100705.16
2022-08-17T19:31:55.170Z,100713.63
2022-08-17T19:34:30.162Z,100710.50
2022-08-17T19:37:06.948Z,100692.25
2022-08-17T19:39:43.718Z,100692.47
2022-08-17T19:42:29.534Z,100684.47
2022-08-17T19:45:34.459Z,100675.38
2022-08-17T19:48:16.709Z,100664.66
2022-08-17T19:50:57.941Z,100665.06
2022-08-17T19:53:47.825Z,100665.47
2022-08-17T19:57:01.702Z,100652.56
2022-08-17T19:59:48.679Z,100649.59
2022-08-17T20:02:30.370Z,100652.47
2022-08-17T20:05:02.176Z,100662.47
2022-08-17T20:07:45.587Z,100659.50
2022-08-17T20:10:20.666Z,100666.44
2022-08-17T20:12:51.456Z,100684.69
2022-08-17T20:15:27.870Z,100692.34
2022-08-17T20:18:00.081Z,100682.31
2022-08-17T20:20:29.749Z,100681.53
2022-08-17T20:23:14.877Z,100667.97
2022-08-17T20:25:57.637Z,100671.78
2022-08-17T20:28:28.762Z,100664.47
2022-08-17T20:30:56.229Z,100648.16
2022-08-17T20:33:25.138Z,100654.38
2022-08-17T20:36:11.152Z,100657.72
2022-08-17T20:38:43.953Z,100667.34
2022-08-17T20:41:20.938Z,100670.09
2022-08-17T20:44:01.239Z,100675.78
2022-08-17T20:46:39.453Z,100660.84
2022-08-17T20:49:09.036Z,100661.38
2022-08-17T20:52:01.237Z,100675.25
2022-08-17T20:54:47.878Z,100691.41
2022-08-17T20:57:50.658Z,100692.09
2022-08-17T21:00:56.376Z,100686.50
2022-08-17T21:03:23.472Z,100687.72
2022-08-17T21:06:00.117Z,100694.25
2022-08-17T21:08:43.730Z,100696.16
2022-08-17T21:12:02.536Z,100685.56
2022-08-17T21:14:56.249Z,100681.38
2022-08-17T21:17:31.944Z,100664.03
2022-08-17T21:20:11.006Z,100648.38
2022-08-17T21:22:53.474Z,100652.09
2022-08-17T21:25:32.490Z,100655.53
2022-08-17T21:28:08.216Z,100647.31
2022-08-17T21:30:37.129Z,100639.91
2022-08-17T21:33:26.989Z,100664.53
2022-08-17T21:36:11.503Z,100656.50
2022-08-17T21:38:40.842Z,100656.28
2022-08-17T21:41:27.326Z,100645.50
2022-08-17T21:44:11.360Z,100653.66
2022-08-17T21:46:42.870Z,100655.19
2022-08-17T21:49:16.800Z,100664.28
2022-08-17T21:51:57.518Z,100670.47
2022-08-17T21:55:12.988Z,100668.34
2022-08-17T21:57:53.107Z,100662.00
2022-08-17T22:00:33.338Z,100671.94
2022-08-17T22:03:03.415Z,100667.56
2022-08-17T22:05:32.801Z,100655.13
2022-08-17T22:08:03.391Z,100651.34
2022-08-17T22:10:42.394Z,100650.13
2022-08-17T22:13:21.431Z,100663.75
2022-08-17T22:15:49.826Z,100667.69
2022-08-17T22:18:26.811Z,100669.91
2022-08-17T22:20:57.320Z,100667.28
2022-08-17T22:23:53.468Z,100664.00
2022-08-17T22:26:23.601Z,100676.22
2022-08-17T22:28:53.571Z,100674.75
2022-08-17T22:31:23.291Z,100672.69
2022-08-17T22:34:07.461Z,100657.75
2022-08-17T22:36:36.203Z,100666.97
2022-08-17T22:39:08.837Z,100657.53
2022-08-17T22:41:43.675Z,100644.97
2022-08-17T22:44:17.210Z,100660.22
2022-08-17T22:46:58.905Z,100662.72
2022-08-17T22:49:38.499Z,100644.97
2022-08-17T22:52:33.950Z,100656.31
2022-08-17T22:55:24.265Z,100643.41
2022-08-17T22:58:09.795Z,100637.06
2022-08-17T23:00:40.884Z,100627.75
2022-08-17T23:03:13.732Z,100624.78
2022-08-17T23:05:44.852Z,100636.13
2022-08-17T23:08:13.489Z,100628.97
2022-08-17T23:10:41.734Z,100622.66
2022-08-17T23:13:11.845Z,100624.31
2022-08-17T23:15:40.322Z,100630.28
2022-08-17T23:18:07.345Z,100625.84
2022-08-17T23:20:39.075Z,100617.38
2022-08-17T23:23:07.688Z,100613.44
2022-08-17T23:25:35.204Z,100611.88
2022-08-17T23:28:06.837Z,100614.56
2022-08-17T23:30:40.951Z,100613.25
2022-08-17T23:33:14.250Z,100619.59
2022-08-17T23:35:41.191Z,100616.34
2022-08-17T23:38:12.975Z,100605.25
2022-08-17T23:40:40.588Z,100599.38
2022-08-17T23:43:24.878Z,100606.31
2022-08-17T23:45:57.380Z,100599.88
2022-08-17T23:48:36.132Z,100610.84
2022-08-17T23:51:14.087Z,100602.00
2022-08-17T23:53:48.175Z,100596.34
2022-08-17T23:56:15.512Z,100587.16
2022-08-17T23:58:43.649Z,100571.88
